sensor_id;sensor_type;location;lat;lon;timestamp;temperature;humidity
74513;DHT22;62992;52.052;8.550;2023-03-19T00:01:36;8.50;99.90
74513;DHT22;62992;52.052;8.550;2023-03-19T00:04:20;8.50;99.90
74513;DHT22;62992;52.052;8.550;2023-03-19T00:07:05;8.50;99.90
74513;DHT22;62992;52.052;8.550;2023-03-19T00:09:49;8.60;99.90
74513;DHT22;62992;52.052;8.550;2023-03-19T00:12:33;8.70;99.90
74513;DHT22;62992;52.052;8.550;2023-03-19T00:15:17;8.60;99.90
74513;DHT22;62992;52.052;8.550;2023-03-19T00:18:01;8.50;99.90
74513;DHT22;62992;52.052;8.550;2023-03-19T00:20:48;8.50;99.90
74513;DHT22;62992;52.052;8.550;2023-03-19T00:23:32;8.40;99.90
74513;DHT22;62992;52.052;8.550;2023-03-19T00:26:16;8.40;99.90
74513;DHT22;62992;52.052;8.550;2023-03-19T00:29:00;8.30;99.90
74513;DHT22;62992;52.052;8.550;2023-03-19T00:31:45;8.30;99.90
74513;DHT22;62992;52.052;8.550;2023-03-19T00:34:29;8.20;99.90
74513;DHT22;62992;52.052;8.550;2023-03-19T00:37:13;8.20;99.90
74513;DHT22;62992;52.052;8.550;2023-03-19T00:39:59;8.10;99.90
74513;DHT22;62992;52.052;8.550;2023-03-19T00:42:43;8.10;99.90
74513;DHT22;62992;52.052;8.550;2023-03-19T00:45:27;8.10;99.90
74513;DHT22;62992;52.052;8.550;2023-03-19T00:48:13;8.00;99.90
74513;DHT22;62992;52.052;8.550;2023-03-19T00:51:08;8.00;99.90
74513;DHT22;62992;52.052;8.550;2023-03-19T00:53:52;8.00;99.90
74513;DHT22;62992;52.052;8.550;2023-03-19T00:56:37;8.00;99.90
74513;DHT22;62992;52.052;8.550;2023-03-19T00:59:22;7.90;99.90
74513;DHT22;62992;52.052;8.550;2023-03-19T01:02:08;7.90;99.90
74513;DHT22;62992;52.052;8.550;2023-03-19T01:04:52;7.80;99.90
74513;DHT22;62992;52.052;8.550;2023-03-19T01:07:36;7.70;99.90
74513;DHT22;62992;52.052;8.550;2023-03-19T01:10:21;7.80;99.90
74513;DHT22;62992;52.052;8.550;2023-03-19T01:13:06;7.80;99.90
74513;DHT22;62992;52.052;8.550;2023-03-19T01:15:51;7.80;99.90
74513;DHT22;62992;52.052;8.550;2023-03-19T01:18:36;7.70;99.90
74513;DHT22;62992;52.052;8.550;2023-03-19T01:21:21;7.70;99.90
74513;DHT22;62992;52.052;8.550;2023-03-19T01:24:05;7.70;99.90
74513;DHT22;62992;52.052;8.550;2023-03-19T01:26:49;7.70;99.90
74513;DHT22;62992;52.052;8.550;2023-03-19T01:29:33;7.70;99.90
74513;DHT22;62992;52.052;8.550;2023-03-19T01:32:18;7.70;99.90
74513;DHT22;62992;52.052;8.550;2023-03-19T01:35:02;7.80;99.90
74513;DHT22;62992;52.052;8.550;2023-03-19T01:37:47;7.80;99.90
74513;DHT22;62992;52.052;8.550;2023-03-19T01:40:31;7.80;99.90
74513;DHT22;62992;52.052;8.550;2023-03-19T01:43:20;7.80;99.90
74513;DHT22;62992;52.052;8.550;2023-03-19T01:46:24;7.80;99.90
74513;DHT22;62992;52.052;8.550;2023-03-19T01:49:10;7.80;99.90
74513;DHT22;62992;52.052;8.550;2023-03-19T01:51:55;7.90;99.90
74513;DHT22;62992;52.052;8.550;2023-03-19T01:54:41;7.90;99.90
74513;DHT22;62992;52.052;8.550;2023-03-19T01:57:28;7.90;99.90
74513;DHT22;62992;52.052;8.550;2023-03-19T02:00:13;7.90;99.90
74513;DHT22;62992;52.052;8.550;2023-03-19T02:03:00;8.00;99.90
74513;DHT22;62992;52.052;8.550;2023-03-19T02:05:45;8.00;99.90
74513;DHT22;62992;52.052;8.550;2023-03-19T02:08:31;8.00;99.90
74513;DHT22;62992;52.052;8.550;2023-03-19T02:11:17;7.90;99.90
74513;DHT22;62992;52.052;8.550;2023-03-19T02:14:02;7.80;99.90
74513;DHT22;62992;52.052;8.550;2023-03-19T02:16:46;7.80;99.90
74513;DHT22;62992;52.052;8.550;2023-03-19T02:19:39;7.80;99.90
74513;DHT22;62992;52.052;8.550;2023-03-19T02:22:27;7.70;99.90
74513;DHT22;62992;52.052;8.550;2023-03-19T02:25:59;7.80;99.90
74513;DHT22;62992;52.052;8.550;2023-03-19T02:28:24;7.80;99.90
74513;DHT22;62992;52.052;8.550;2023-03-19T02:31:09;7.80;99.90
74513;DHT22;62992;52.052;8.550;2023-03-19T02:36:50;7.80;99.90
74513;DHT22;62992;52.052;8.550;2023-03-19T02:39:48;8.00;99.90
74513;DHT22;62992;52.052;8.550;2023-03-19T02:42:33;7.90;99.90
74513;DHT22;62992;52.052;8.550;2023-03-19T02:45:18;7.90;99.90
74513;DHT22;62992;52.052;8.550;2023-03-19T02:48:03;7.90;99.90
74513;DHT22;62992;52.052;8.550;2023-03-19T02:50:47;7.90;99.90
74513;DHT22;62992;52.052;8.550;2023-03-19T02:53:31;7.90;99.90
74513;DHT22;62992;52.052;8.550;2023-03-19T02:56:15;7.80;99.90
74513;DHT22;62992;52.052;8.550;2023-03-19T02:58:59;7.90;99.90
74513;DHT22;62992;52.052;8.550;2023-03-19T03:01:43;7.90;99.90
74513;DHT22;62992;52.052;8.550;2023-03-19T03:04:27;8.00;99.90
74513;DHT22;62992;52.052;8.550;2023-03-19T03:07:12;8.00;99.90
74513;DHT22;62992;52.052;8.550;2023-03-19T03:09:56;8.00;99.90
74513;DHT22;62992;52.052;8.550;2023-03-19T03:12:41;8.00;99.90
74513;DHT22;62992;52.052;8.550;2023-03-19T03:15:26;8.00;99.90
74513;DHT22;62992;52.052;8.550;2023-03-19T03:18:10;8.00;99.90
74513;DHT22;62992;52.052;8.550;2023-03-19T03:20:54;8.10;99.90
74513;DHT22;62992;52.052;8.550;2023-03-19T03:23:38;8.00;99.90
74513;DHT22;62992;52.052;8.550;2023-03-19T03:26:22;8.00;99.90
74513;DHT22;62992;52.052;8.550;2023-03-19T03:29:06;8.00;99.90
74513;DHT22;62992;52.052;8.550;2023-03-19T03:31:50;8.00;99.90
74513;DHT22;62992;52.052;8.550;2023-03-19T03:34:35;7.90;99.90
74513;DHT22;62992;52.052;8.550;2023-03-19T03:37:19;8.00;99.90
74513;DHT22;62992;52.052;8.550;2023-03-19T03:40:04;7.90;99.90
74513;DHT22;62992;52.052;8.550;2023-03-19T03:42:51;8.00;99.90
74513;DHT22;62992;52.052;8.550;2023-03-19T03:45:36;8.00;99.90
74513;DHT22;62992;52.052;8.550;2023-03-19T03:48:20;8.00;99.90
74513;DHT22;62992;52.052;8.550;2023-03-19T03:51:04;8.00;99.90
74513;DHT22;62992;52.052;8.550;2023-03-19T03:53:48;8.00;99.90
74513;DHT22;62992;52.052;8.550;2023-03-19T03:56:32;8.00;99.90
74513;DHT22;62992;52.052;8.550;2023-03-19T03:59:16;8.00;99.90
74513;DHT22;62992;52.052;8.550;2023-03-19T04:02:00;8.10;99.90
74513;DHT22;62992;52.052;8.550;2023-03-19T04:04:44;8.10;99.90
74513;DHT22;62992;52.052;8.550;2023-03-19T04:07:29;8.00;99.90
74513;DHT22;62992;52.052;8.550;2023-03-19T04:10:13;8.00;99.90
74513;DHT22;62992;52.052;8.550;2023-03-19T04:12:58;7.90;99.90
74513;DHT22;62992;52.052;8.550;2023-03-19T04:15:42;7.90;99.90
74513;DHT22;62992;52.052;8.550;2023-03-19T04:18:26;7.90;99.90
74513;DHT22;62992;52.052;8.550;2023-03-19T04:21:10;7.80;99.90
74513;DHT22;62992;52.052;8.550;2023-03-19T04:23:54;7.80;99.90
74513;DHT22;62992;52.052;8.550;2023-03-19T04:26:39;7.70;99.90
74513;DHT22;62992;52.052;8.550;2023-03-19T04:29:23;7.70;99.90
74513;DHT22;62992;52.052;8.550;2023-03-19T04:32:08;7.70;99.90
74513;DHT22;62992;52.052;8.550;2023-03-19T04:34:52;7.60;99.90
74513;DHT22;62992;52.052;8.550;2023-03-19T04:37:36;7.60;99.90
74513;DHT22;62992;52.052;8.550;2023-03-19T04:40:20;7.60;99.90
74513;DHT22;62992;52.052;8.550;2023-03-19T04:43:04;7.60;99.90
74513;DHT22;62992;52.052;8.550;2023-03-19T04:45:49;7.60;99.90
74513;DHT22;62992;52.052;8.550;2023-03-19T04:48:34;7.50;99.90
74513;DHT22;62992;52.052;8.550;2023-03-19T04:51:19;7.40;99.90
74513;DHT22;62992;52.052;8.550;2023-03-19T04:54:06;7.40;99.90
74513;DHT22;62992;52.052;8.550;2023-03-19T04:56:50;7.30;99.90
74513;DHT22;62992;52.052;8.550;2023-03-19T04:59:36;7.30;99.90
74513;DHT22;62992;52.052;8.550;2023-03-19T05:02:20;7.20;99.90
74513;DHT22;62992;52.052;8.550;2023-03-19T05:05:04;7.20;99.90
74513;DHT22;62992;52.052;8.550;2023-03-19T05:07:49;7.10;99.90
74513;DHT22;62992;52.052;8.550;2023-03-19T05:10:34;7.10;99.90
74513;DHT22;62992;52.052;8.550;2023-03-19T05:13:18;7.00;99.90
74513;DHT22;62992;52.052;8.550;2023-03-19T05:16:02;7.00;99.90
74513;DHT22;62992;52.052;8.550;2023-03-19T05:18:47;6.90;99.90
74513;DHT22;62992;52.052;8.550;2023-03-19T05:21:31;6.90;99.90
74513;DHT22;62992;52.052;8.550;2023-03-19T05:24:16;6.90;99.90
74513;DHT22;62992;52.052;8.550;2023-03-19T05:27:00;6.90;99.90
74513;DHT22;62992;52.052;8.550;2023-03-19T05:29:44;7.00;99.90
74513;DHT22;62992;52.052;8.550;2023-03-19T05:32:29;6.90;99.90
74513;DHT22;62992;52.052;8.550;2023-03-19T05:35:14;7.00;99.90
74513;DHT22;62992;52.052;8.550;2023-03-19T05:37:58;7.20;99.90
74513;DHT22;62992;52.052;8.550;2023-03-19T05:40:42;7.30;99.90
74513;DHT22;62992;52.052;8.550;2023-03-19T05:43:26;7.50;99.90
74513;DHT22;62992;52.052;8.550;2023-03-19T05:46:11;7.70;99.90
74513;DHT22;62992;52.052;8.550;2023-03-19T05:48:55;7.70;99.90
74513;DHT22;62992;52.052;8.550;2023-03-19T05:51:39;7.70;99.90
74513;DHT22;62992;52.052;8.550;2023-03-19T05:54:24;7.70;99.90
74513;DHT22;62992;52.052;8.550;2023-03-19T05:57:08;7.50;99.90
74513;DHT22;62992;52.052;8.550;2023-03-19T05:59:52;7.40;99.90
74513;DHT22;62992;52.052;8.550;2023-03-19T06:02:36;7.20;99.90
74513;DHT22;62992;52.052;8.550;2023-03-19T06:05:21;7.20;99.90
74513;DHT22;62992;52.052;8.550;2023-03-19T06:08:05;7.10;99.90
74513;DHT22;62992;52.052;8.550;2023-03-19T06:10:49;7.00;99.90
74513;DHT22;62992;52.052;8.550;2023-03-19T06:13:34;7.00;99.90
74513;DHT22;62992;52.052;8.550;2023-03-19T06:16:18;7.00;99.90
74513;DHT22;62992;52.052;8.550;2023-03-19T06:19:02;7.00;99.90
74513;DHT22;62992;52.052;8.550;2023-03-19T06:21:47;7.00;99.90
74513;DHT22;62992;52.052;8.550;2023-03-19T06:24:31;7.10;99.90
74513;DHT22;62992;52.052;8.550;2023-03-19T06:27:15;7.10;99.90
74513;DHT22;62992;52.052;8.550;2023-03-19T06:29:59;7.10;99.90
74513;DHT22;62992;52.052;8.550;2023-03-19T06:32:44;7.20;99.90
74513;DHT22;62992;52.052;8.550;2023-03-19T06:35:28;7.20;99.90
74513;DHT22;62992;52.052;8.550;2023-03-19T06:38:12;7.30;99.90
74513;DHT22;62992;52.052;8.550;2023-03-19T06:40:56;7.40;99.90
74513;DHT22;62992;52.052;8.550;2023-03-19T06:43:40;7.50;99.90
74513;DHT22;62992;52.052;8.550;2023-03-19T06:46:25;7.70;99.90
74513;DHT22;62992;52.052;8.550;2023-03-19T06:49:09;8.00;99.90
74513;DHT22;62992;52.052;8.550;2023-03-19T06:51:54;8.20;99.90
74513;DHT22;62992;52.052;8.550;2023-03-19T06:54:38;8.50;99.90
74513;DHT22;62992;52.052;8.550;2023-03-19T06:57:22;8.70;99.90
74513;DHT22;62992;52.052;8.550;2023-03-19T07:00:07;9.00;99.90
74513;DHT22;62992;52.052;8.550;2023-03-19T07:02:54;9.30;99.90
74513;DHT22;62992;52.052;8.550;2023-03-19T07:05:38;9.60;99.90
74513;DHT22;62992;52.052;8.550;2023-03-19T07:08:22;11.20;99.90
74513;DHT22;62992;52.052;8.550;2023-03-19T07:11:07;10.90;99.90
74513;DHT22;62992;52.052;8.550;2023-03-19T07:13:51;10.50;99.90
74513;DHT22;62992;52.052;8.550;2023-03-19T07:16:35;10.20;99.90
74513;DHT22;62992;52.052;8.550;2023-03-19T07:19:19;9.90;99.90
74513;DHT22;62992;52.052;8.550;2023-03-19T07:22:03;9.80;99.90
74513;DHT22;62992;52.052;8.550;2023-03-19T07:24:48;9.70;99.90
74513;DHT22;62992;52.052;8.550;2023-03-19T07:27:32;9.60;99.90
74513;DHT22;62992;52.052;8.550;2023-03-19T07:30:16;9.70;99.90
74513;DHT22;62992;52.052;8.550;2023-03-19T07:33:01;9.70;99.90
74513;DHT22;62992;52.052;8.550;2023-03-19T07:35:45;9.80;99.90
74513;DHT22;62992;52.052;8.550;2023-03-19T07:38:29;10.00;99.90
74513;DHT22;62992;52.052;8.550;2023-03-19T07:41:13;10.30;99.90
74513;DHT22;62992;52.052;8.550;2023-03-19T07:43:58;10.70;99.90
74513;DHT22;62992;52.052;8.550;2023-03-19T07:46:42;11.50;99.90
74513;DHT22;62992;52.052;8.550;2023-03-19T07:49:26;12.10;99.90
74513;DHT22;62992;52.052;8.550;2023-03-19T07:52:10;15.60;99.90
74513;DHT22;62992;52.052;8.550;2023-03-19T07:54:55;14.50;99.90
74513;DHT22;62992;52.052;8.550;2023-03-19T07:57:39;13.50;99.90
74513;DHT22;62992;52.052;8.550;2023-03-19T08:00:24;13.70;99.90
74513;DHT22;62992;52.052;8.550;2023-03-19T08:03:09;15.80;99.90
74513;DHT22;62992;52.052;8.550;2023-03-19T08:05:53;14.50;99.90
74513;DHT22;62992;52.052;8.550;2023-03-19T08:08:37;13.60;99.90
74513;DHT22;62992;52.052;8.550;2023-03-19T08:11:21;13.20;99.90
74513;DHT22;62992;52.052;8.550;2023-03-19T08:14:05;13.30;99.90
74513;DHT22;62992;52.052;8.550;2023-03-19T08:16:49;13.50;99.90
74513;DHT22;62992;52.052;8.550;2023-03-19T08:19:34;13.30;99.90
74513;DHT22;62992;52.052;8.550;2023-03-19T08:22:18;14.10;99.90
74513;DHT22;62992;52.052;8.550;2023-03-19T08:25:03;14.60;99.90
74513;DHT22;62992;52.052;8.550;2023-03-19T08:27:48;14.70;99.90
74513;DHT22;62992;52.052;8.550;2023-03-19T08:30:32;18.20;99.90
74513;DHT22;62992;52.052;8.550;2023-03-19T08:33:17;19.50;99.90
74513;DHT22;62992;52.052;8.550;2023-03-19T08:36:06;21.00;99.90
74513;DHT22;62992;52.052;8.550;2023-03-19T08:38:51;18.80;99.90
74513;DHT22;62992;52.052;8.550;2023-03-19T08:41:37;20.10;99.90
74513;DHT22;62992;52.052;8.550;2023-03-19T08:44:21;19.40;99.90
74513;DHT22;62992;52.052;8.550;2023-03-19T08:47:05;17.60;99.90
74513;DHT22;62992;52.052;8.550;2023-03-19T08:49:50;16.90;99.90
74513;DHT22;62992;52.052;8.550;2023-03-19T08:52:35;16.50;99.90
74513;DHT22;62992;52.052;8.550;2023-03-19T08:55:19;16.40;99.90
74513;DHT22;62992;52.052;8.550;2023-03-19T08:58:03;15.80;99.90
74513;DHT22;62992;52.052;8.550;2023-03-19T09:00:48;16.10;99.90
74513;DHT22;62992;52.052;8.550;2023-03-19T09:03:32;18.00;99.90
74513;DHT22;62992;52.052;8.550;2023-03-19T09:06:16;20.10;99.90
74513;DHT22;62992;52.052;8.550;2023-03-19T09:09:00;19.90;99.90
74513;DHT22;62992;52.052;8.550;2023-03-19T09:11:45;21.20;99.90
74513;DHT22;62992;52.052;8.550;2023-03-19T09:14:29;20.90;99.90
74513;DHT22;62992;52.052;8.550;2023-03-19T09:17:14;18.20;99.90
74513;DHT22;62992;52.052;8.550;2023-03-19T09:19:58;18.10;99.90
74513;DHT22;62992;52.052;8.550;2023-03-19T09:22:42;17.70;99.90
74513;DHT22;62992;52.052;8.550;2023-03-19T09:25:26;19.40;99.90
74513;DHT22;62992;52.052;8.550;2023-03-19T09:28:10;21.50;99.90
74513;DHT22;62992;52.052;8.550;2023-03-19T09:30:55;21.90;99.20
74513;DHT22;62992;52.052;8.550;2023-03-19T09:33:40;21.50;99.40
74513;DHT22;62992;52.052;8.550;2023-03-19T09:36:24;20.60;99.40
74513;DHT22;62992;52.052;8.550;2023-03-19T09:39:08;19.50;99.90
74513;DHT22;62992;52.052;8.550;2023-03-19T09:44:55;18.00;99.90
74513;DHT22;62992;52.052;8.550;2023-03-19T09:47:40;17.20;99.90
74513;DHT22;62992;52.052;8.550;2023-03-19T09:50:26;16.50;99.90
74513;DHT22;62992;52.052;8.550;2023-03-19T09:53:39;15.80;99.90
74513;DHT22;62992;52.052;8.550;2023-03-19T09:56:27;15.00;99.90
74513;DHT22;62992;52.052;8.550;2023-03-19T09:59:11;14.90;99.90
74513;DHT22;62992;52.052;8.550;2023-03-19T10:02:57;14.90;99.90
74513;DHT22;62992;52.052;8.550;2023-03-19T10:05:30;14.80;99.90
74513;DHT22;62992;52.052;8.550;2023-03-19T10:12:00;15.00;99.90
74513;DHT22;62992;52.052;8.550;2023-03-19T10:15:09;14.80;99.90
74513;DHT22;62992;52.052;8.550;2023-03-19T10:18:09;15.80;99.90
74513;DHT22;62992;52.052;8.550;2023-03-19T10:21:04;18.00;99.90
74513;DHT22;62992;52.052;8.550;2023-03-19T10:24:05;19.00;99.90
74513;DHT22;62992;52.052;8.550;2023-03-19T10:26:57;19.30;99.90
74513;DHT22;62992;52.052;8.550;2023-03-19T10:29:41;18.80;99.90
74513;DHT22;62992;52.052;8.550;2023-03-19T10:32:43;18.80;99.90
74513;DHT22;62992;52.052;8.550;2023-03-19T10:35:45;18.70;99.90
74513;DHT22;62992;52.052;8.550;2023-03-19T10:38:31;19.20;99.90
74513;DHT22;62992;52.052;8.550;2023-03-19T10:41:23;18.50;99.90
74513;DHT22;62992;52.052;8.550;2023-03-19T10:44:32;17.80;99.90
74513;DHT22;62992;52.052;8.550;2023-03-19T10:47:17;17.60;99.90
74513;DHT22;62992;52.052;8.550;2023-03-19T10:50:03;17.20;99.90
74513;DHT22;62992;52.052;8.550;2023-03-19T10:52:57;17.00;99.90
74513;DHT22;62992;52.052;8.550;2023-03-19T10:55:56;16.80;99.90
74513;DHT22;62992;52.052;8.550;2023-03-19T10:59:18;16.10;99.90
74513;DHT22;62992;52.052;8.550;2023-03-19T11:02:24;15.90;99.90
74513;DHT22;62992;52.052;8.550;2023-03-19T11:08:06;16.10;99.90
74513;DHT22;62992;52.052;8.550;2023-03-19T11:10:57;16.20;99.90
74513;DHT22;62992;52.052;8.550;2023-03-19T11:13:41;17.60;99.90
74513;DHT22;62992;52.052;8.550;2023-03-19T11:16:25;18.20;99.90
74513;DHT22;62992;52.052;8.550;2023-03-19T11:19:19;18.80;99.90
74513;DHT22;62992;52.052;8.550;2023-03-19T11:24:54;17.30;99.90
74513;DHT22;62992;52.052;8.550;2023-03-19T11:27:38;16.40;99.90
74513;DHT22;62992;52.052;8.550;2023-03-19T11:30:23;15.80;99.90
74513;DHT22;62992;52.052;8.550;2023-03-19T11:39:27;15.20;99.90
74513;DHT22;62992;52.052;8.550;2023-03-19T11:51:46;15.10;99.90
74513;DHT22;62992;52.052;8.550;2023-03-19T11:55:03;15.70;99.90
74513;DHT22;62992;52.052;8.550;2023-03-19T12:16:23;15.30;99.90
74513;DHT22;62992;52.052;8.550;2023-03-19T12:25:57;14.90;99.90
74513;DHT22;62992;52.052;8.550;2023-03-19T12:28:58;14.80;99.90
74513;DHT22;62992;52.052;8.550;2023-03-19T12:35:02;14.60;99.90
74513;DHT22;62992;52.052;8.550;2023-03-19T12:38:02;14.60;99.90
74513;DHT22;62992;52.052;8.550;2023-03-19T12:47:02;14.60;99.90
74513;DHT22;62992;52.052;8.550;2023-03-19T12:49:48;14.70;99.90
74513;DHT22;62992;52.052;8.550;2023-03-19T12:52:49;14.70;99.90
74513;DHT22;62992;52.052;8.550;2023-03-19T12:55:40;14.90;99.90
74513;DHT22;62992;52.052;8.550;2023-03-19T12:58:50;15.10;99.90
74513;DHT22;62992;52.052;8.550;2023-03-19T13:01:40;15.20;99.90
74513;DHT22;62992;52.052;8.550;2023-03-19T13:04:39;15.20;99.90
74513;DHT22;62992;52.052;8.550;2023-03-19T13:07:39;15.30;99.90
74513;DHT22;62992;52.052;8.550;2023-03-19T13:10:29;15.40;99.90
74513;DHT22;62992;52.052;8.550;2023-03-19T13:13:40;15.40;99.90
74513;DHT22;62992;52.052;8.550;2023-03-19T13:19:45;15.50;99.90
74513;DHT22;62992;52.052;8.550;2023-03-19T13:22:33;15.50;99.90
74513;DHT22;62992;52.052;8.550;2023-03-19T13:25:43;15.90;99.90
74513;DHT22;62992;52.052;8.550;2023-03-19T13:28:27;16.00;99.90
74513;DHT22;62992;52.052;8.550;2023-03-19T13:31:20;16.10;99.90
74513;DHT22;62992;52.052;8.550;2023-03-19T13:37:23;15.40;99.90
74513;DHT22;62992;52.052;8.550;2023-03-19T14:01:00;16.30;99.90
74513;DHT22;62992;52.052;8.550;2023-03-19T14:04:14;16.50;99.90
74513;DHT22;62992;52.052;8.550;2023-03-19T14:07:21;16.30;99.90
74513;DHT22;62992;52.052;8.550;2023-03-19T14:10:13;16.00;99.90
74513;DHT22;62992;52.052;8.550;2023-03-19T14:13:13;15.70;99.90
74513;DHT22;62992;52.052;8.550;2023-03-19T14:16:11;15.50;99.90
74513;DHT22;62992;52.052;8.550;2023-03-19T14:19:00;15.40;99.90
74513;DHT22;62992;52.052;8.550;2023-03-19T14:22:07;15.50;99.90
74513;DHT22;62992;52.052;8.550;2023-03-19T14:27:59;15.50;99.90
74513;DHT22;62992;52.052;8.550;2023-03-19T14:30:46;15.50;99.90
74513;DHT22;62992;52.052;8.550;2023-03-19T14:33:42;15.60;99.90
74513;DHT22;62992;52.052;8.550;2023-03-19T14:36:27;15.50;99.90
74513;DHT22;62992;52.052;8.550;2023-03-19T14:39:30;15.40;99.90
74513;DHT22;62992;52.052;8.550;2023-03-19T14:42:37;15.30;99.90
74513;DHT22;62992;52.052;8.550;2023-03-19T14:49:01;15.60;99.90
74513;DHT22;62992;52.052;8.550;2023-03-19T14:55:08;15.50;99.90
74513;DHT22;62992;52.052;8.550;2023-03-19T14:57:55;15.50;99.90
74513;DHT22;62992;52.052;8.550;2023-03-19T15:00:43;15.30;99.90
74513;DHT22;62992;52.052;8.550;2023-03-19T15:03:34;15.30;99.90
74513;DHT22;62992;52.052;8.550;2023-03-19T15:06:20;15.20;99.90
74513;DHT22;62992;52.052;8.550;2023-03-19T15:09:27;15.20;99.90
74513;DHT22;62992;52.052;8.550;2023-03-19T15:18:25;15.10;99.90
74513;DHT22;62992;52.052;8.550;2023-03-19T15:21:10;15.10;99.90
74513;DHT22;62992;52.052;8.550;2023-03-19T15:23:54;15.10;99.90
74513;DHT22;62992;52.052;8.550;2023-03-19T15:26:38;15.10;99.90
74513;DHT22;62992;52.052;8.550;2023-03-19T15:29:30;15.00;99.90
74513;DHT22;62992;52.052;8.550;2023-03-19T15:32:34;14.90;99.90
74513;DHT22;62992;52.052;8.550;2023-03-19T15:35:23;14.80;99.90
74513;DHT22;62992;52.052;8.550;2023-03-19T15:38:10;14.70;99.90
74513;DHT22;62992;52.052;8.550;2023-03-19T15:40:56;14.60;99.90
74513;DHT22;62992;52.052;8.550;2023-03-19T15:43:41;14.30;99.90
74513;DHT22;62992;52.052;8.550;2023-03-19T15:46:33;14.00;99.90
74513;DHT22;62992;52.052;8.550;2023-03-19T15:49:27;13.80;99.90
74513;DHT22;62992;52.052;8.550;2023-03-19T15:52:14;13.80;99.90
74513;DHT22;62992;52.052;8.550;2023-03-19T15:55:00;13.70;99.90
74513;DHT22;62992;52.052;8.550;2023-03-19T15:57:45;13.60;99.90
74513;DHT22;62992;52.052;8.550;2023-03-19T16:00:30;13.60;99.90
74513;DHT22;62992;52.052;8.550;2023-03-19T16:03:18;13.50;99.90
74513;DHT22;62992;52.052;8.550;2023-03-19T16:06:13;13.40;99.90
74513;DHT22;62992;52.052;8.550;2023-03-19T16:12:38;13.40;99.90
74513;DHT22;62992;52.052;8.550;2023-03-19T16:15:39;13.40;99.90
74513;DHT22;62992;52.052;8.550;2023-03-19T16:18:27;13.40;99.90
74513;DHT22;62992;52.052;8.550;2023-03-19T16:21:15;13.50;99.90
74513;DHT22;62992;52.052;8.550;2023-03-19T16:24:13;13.50;99.90
74513;DHT22;62992;52.052;8.550;2023-03-19T16:26:57;13.40;99.90
74513;DHT22;62992;52.052;8.550;2023-03-19T16:29:46;13.50;99.90
74513;DHT22;62992;52.052;8.550;2023-03-19T16:32:31;13.40;99.90
74513;DHT22;62992;52.052;8.550;2023-03-19T16:35:16;13.40;99.90
74513;DHT22;62992;52.052;8.550;2023-03-19T16:41:28;13.30;99.90
74513;DHT22;62992;52.052;8.550;2023-03-19T16:44:17;13.30;99.90
74513;DHT22;62992;52.052;8.550;2023-03-19T16:47:04;13.30;99.90
74513;DHT22;62992;52.052;8.550;2023-03-19T16:49:48;13.30;99.90
74513;DHT22;62992;52.052;8.550;2023-03-19T16:52:32;13.30;99.90
74513;DHT22;62992;52.052;8.550;2023-03-19T16:55:22;13.30;99.90
74513;DHT22;62992;52.052;8.550;2023-03-19T16:58:13;13.20;99.90
74513;DHT22;62992;52.052;8.550;2023-03-19T17:00:58;13.20;99.90
74513;DHT22;62992;52.052;8.550;2023-03-19T17:03:43;13.20;99.90
74513;DHT22;62992;52.052;8.550;2023-03-19T17:06:27;13.10;99.90
74513;DHT22;62992;52.052;8.550;2023-03-19T17:09:14;13.20;99.90
74513;DHT22;62992;52.052;8.550;2023-03-19T17:11:59;13.20;99.90
74513;DHT22;62992;52.052;8.550;2023-03-19T17:14:45;13.20;99.90
74513;DHT22;62992;52.052;8.550;2023-03-19T17:17:32;13.10;99.90
74513;DHT22;62992;52.052;8.550;2023-03-19T17:20:23;13.10;99.90
74513;DHT22;62992;52.052;8.550;2023-03-19T17:23:11;13.00;99.90
74513;DHT22;62992;52.052;8.550;2023-03-19T17:25:56;13.00;99.90
74513;DHT22;62992;52.052;8.550;2023-03-19T17:28:40;13.00;99.90
74513;DHT22;62992;52.052;8.550;2023-03-19T17:31:29;13.00;99.90
74513;DHT22;62992;52.052;8.550;2023-03-19T17:34:20;12.90;99.90
74513;DHT22;62992;52.052;8.550;2023-03-19T17:37:06;12.90;99.90
74513;DHT22;62992;52.052;8.550;2023-03-19T17:39:54;12.80;99.90
74513;DHT22;62992;52.052;8.550;2023-03-19T17:42:38;12.80;99.90
74513;DHT22;62992;52.052;8.550;2023-03-19T17:45:25;12.80;99.90
74513;DHT22;62992;52.052;8.550;2023-03-19T17:48:25;12.70;99.90
74513;DHT22;62992;52.052;8.550;2023-03-19T17:51:10;12.70;99.90
74513;DHT22;62992;52.052;8.550;2023-03-19T17:53:54;12.60;99.90
74513;DHT22;62992;52.052;8.550;2023-03-19T17:56:39;12.50;99.90
74513;DHT22;62992;52.052;8.550;2023-03-19T17:59:26;12.50;99.90
74513;DHT22;62992;52.052;8.550;2023-03-19T18:02:30;12.40;99.90
74513;DHT22;62992;52.052;8.550;2023-03-19T18:05:20;12.40;99.90
74513;DHT22;62992;52.052;8.550;2023-03-19T18:08:05;12.30;99.90
74513;DHT22;62992;52.052;8.550;2023-03-19T18:10:50;12.20;99.90
74513;DHT22;62992;52.052;8.550;2023-03-19T18:13:35;12.10;99.90
74513;DHT22;62992;52.052;8.550;2023-03-19T18:16:25;12.10;99.90
74513;DHT22;62992;52.052;8.550;2023-03-19T18:19:34;12.10;99.90
74513;DHT22;62992;52.052;8.550;2023-03-19T18:22:19;12.00;99.90
74513;DHT22;62992;52.052;8.550;2023-03-19T18:25:04;12.00;99.90
74513;DHT22;62992;52.052;8.550;2023-03-19T18:27:49;12.10;99.90
74513;DHT22;62992;52.052;8.550;2023-03-19T18:30:35;12.10;99.90
74513;DHT22;62992;52.052;8.550;2023-03-19T18:33:24;12.10;99.90
74513;DHT22;62992;52.052;8.550;2023-03-19T18:36:12;12.20;99.90
74513;DHT22;62992;52.052;8.550;2023-03-19T18:38:58;12.20;99.90
74513;DHT22;62992;52.052;8.550;2023-03-19T18:41:42;12.30;99.90
74513;DHT22;62992;52.052;8.550;2023-03-19T18:44:27;12.30;99.90
74513;DHT22;62992;52.052;8.550;2023-03-19T18:47:13;12.30;99.90
74513;DHT22;62992;52.052;8.550;2023-03-19T18:49:58;12.30;99.90
74513;DHT22;62992;52.052;8.550;2023-03-19T18:52:45;12.30;99.90
74513;DHT22;62992;52.052;8.550;2023-03-19T18:55:30;12.20;99.90
74513;DHT22;62992;52.052;8.550;2023-03-19T18:58:18;12.30;99.90
74513;DHT22;62992;52.052;8.550;2023-03-19T19:01:02;12.30;99.90
74513;DHT22;62992;52.052;8.550;2023-03-19T19:03:47;12.30;99.90
74513;DHT22;62992;52.052;8.550;2023-03-19T19:06:31;12.30;99.90
74513;DHT22;62992;52.052;8.550;2023-03-19T19:09:17;12.30;99.90
74513;DHT22;62992;52.052;8.550;2023-03-19T19:12:01;12.30;99.90
74513;DHT22;62992;52.052;8.550;2023-03-19T19:14:47;12.30;99.90
74513;DHT22;62992;52.052;8.550;2023-03-19T19:17:31;12.20;99.90
74513;DHT22;62992;52.052;8.550;2023-03-19T19:20:19;12.30;99.90
74513;DHT22;62992;52.052;8.550;2023-03-19T19:23:04;12.20;99.90
74513;DHT22;62992;52.052;8.550;2023-03-19T19:29:29;12.20;99.90
74513;DHT22;62992;52.052;8.550;2023-03-19T19:35:05;12.20;99.90
74513;DHT22;62992;52.052;8.550;2023-03-19T19:37:50;12.20;99.90
74513;DHT22;62992;52.052;8.550;2023-03-19T19:40:35;12.10;99.90
74513;DHT22;62992;52.052;8.550;2023-03-19T19:43:22;12.10;99.90
74513;DHT22;62992;52.052;8.550;2023-03-19T19:46:08;12.10;99.90
74513;DHT22;62992;52.052;8.550;2023-03-19T19:48:52;12.10;99.90